createdAt,value
2023-03-31T00:00:14.763Z,100170.28
2023-03-31T00:03:02.754Z,100161.75
2023-03-31T00:05:53.462Z,100157.59
2023-03-31T00:08:40.213Z,100144.25
2023-03-31T00:11:26.403Z,100141.28
2023-03-31T00:14:13.475Z,100124.22
2023-03-31T00:16:59.868Z,100127.44
2023-03-31T00:19:49.873Z,100116.47
2023-03-31T00:22:38.505Z,100106.50
2023-03-31T00:25:24.462Z,100098.38
2023-03-31T00:28:10.727Z,100091.97
2023-03-31T00:31:02.102Z,100087.47
2023-03-31T00:33:48.129Z,100082.50
2023-03-31T00:36:36.862Z,100078.94
2023-03-31T00:39:25.357Z,100075.44
2023-03-31T00:42:13.919Z,100071.03
2023-03-31T00:45:24.225Z,100055.78
2023-03-31T00:48:17.550Z,100045.72
2023-03-31T00:51:07.266Z,100039.66
2023-03-31T00:53:57.456Z,100034.50
2023-03-31T00:56:48.349Z,100023.84
2023-03-31T00:59:39.964Z,100027.00
2023-03-31T01:02:26.684Z,100017.75
2023-03-31T01:05:13.222Z,100024.09
2023-03-31T01:08:02.153Z,100017.81
2023-03-31T01:10:53.989Z,100013.56
2023-03-31T01:13:43.321Z,100008.19
2023-03-31T01:16:30.486Z,100004.47
2023-03-31T01:19:28.433Z,100000.72
2023-03-31T01:22:42.002Z,99984.56
2023-03-31T01:25:56.341Z,99979.91
2023-03-31T01:28:52.392Z,99978.28
2023-03-31T01:31:58.059Z,99981.63
2023-03-31T01:35:41.355Z,99984.94
2023-03-31T01:39:07.388Z,99967.72
2023-03-31T01:42:04.562Z,99953.38
2023-03-31T01:45:01.464Z,99954.16
2023-03-31T01:47:54.417Z,99945.91
2023-03-31T01:50:48.550Z,99936.22
2023-03-31T01:53:42.436Z,99931.91
2023-03-31T01:56:33.629Z,99932.09
2023-03-31T01:59:28.293Z,99916.94
2023-03-31T02:02:18.856Z,99913.22
2023-03-31T02:05:10.598Z,99913.22
2023-03-31T02:08:00.500Z,99893.88
2023-03-31T02:10:47.909Z,99894.16
2023-03-31T02:13:37.673Z,99891.63
2023-03-31T02:16:28.926Z,99878.88
2023-03-31T02:19:19.022Z,99881.63
2023-03-31T02:22:08.524Z,99862.16
2023-03-31T02:24:57.484Z,99869.41
2023-03-31T02:27:47.793Z,99866.34
2023-03-31T02:30:38.681Z,99860.72
2023-03-31T02:33:26.206Z,99859.22
2023-03-31T02:36:12.845Z,99865.06
2023-03-31T02:39:03.697Z,99863.84
2023-03-31T02:41:50.106Z,99848.28
2023-03-31T02:44:36.881Z,99838.53
2023-03-31T02:47:23.366Z,99847.16
2023-03-31T02:50:11.573Z,99837.78
2023-03-31T02:53:10.381Z,99839.56
2023-03-31T02:56:13.229Z,99823.66
2023-03-31T02:59:16.590Z,99812.78
2023-03-31T03:02:12.865Z,99792.56
2023-03-31T03:05:20.320Z,99779.28
2023-03-31T03:08:32.089Z,99771.88
2023-03-31T03:11:27.214Z,99765.00
2023-03-31T03:14:24.717Z,99759.34
2023-03-31T03:17:13.316Z,99753.19
2023-03-31T03:20:02.292Z,99742.88
2023-03-31T03:22:50.560Z,99731.38
2023-03-31T03:25:36.675Z,99719.44
2023-03-31T03:28:22.758Z,99709.56
2023-03-31T03:31:09.489Z,99700.69
2023-03-31T03:33:56.241Z,99707.41
2023-03-31T03:36:42.490Z,99707.88
2023-03-31T03:39:30.252Z,99691.72
2023-03-31T03:42:16.715Z,99681.72
2023-03-31T03:45:04.501Z,99672.31
2023-03-31T03:47:50.985Z,99688.19
2023-03-31T03:50:38.631Z,99675.47
2023-03-31T03:53:24.751Z,99665.28
2023-03-31T03:56:12.361Z,99658.41
2023-03-31T03:58:58.625Z,99628.34
2023-03-31T04:01:45.309Z,99622.56
2023-03-31T04:04:31.616Z,99623.44
2023-03-31T04:07:18.197Z,99592.69
2023-03-31T04:10:04.857Z,99576.44
2023-03-31T04:12:52.277Z,99569.16
2023-03-31T04:15:38.893Z,99561.69
2023-03-31T04:18:24.911Z,99557.47
2023-03-31T04:21:15.222Z,99554.09
2023-03-31T04:24:04.424Z,99542.63
2023-03-31T04:26:51.534Z,99543.97
2023-03-31T04:29:38.978Z,99544.63
2023-03-31T04:32:25.412Z,99539.25
2023-03-31T04:35:15.366Z,99527.19
2023-03-31T04:38:02.554Z,99519.69
2023-03-31T04:40:50.951Z,99507.59
2023-03-31T04:43:36.972Z,99502.59
2023-03-31T04:46:25.508Z,99490.94
2023-03-31T04:49:11.853Z,99472.41
2023-03-31T04:51:58.041Z,99465.34
2023-03-31T04:54:44.434Z,99461.09
2023-03-31T04:57:30.883Z,99446.53
2023-03-31T05:00:18.428Z,99442.75
2023-03-31T05:03:06.608Z,99443.94
2023-03-31T05:05:53.200Z,99432.22
2023-03-31T05:08:39.257Z,99421.22
2023-03-31T05:11:26.329Z,99414.28
2023-03-31T05:14:12.976Z,99414.69
2023-03-31T05:16:59.636Z,99402.03
2023-03-31T05:19:47.547Z,99410.25
2023-03-31T05:22:35.743Z,99408.84
2023-03-31T05:25:24.111Z,99406.78
2023-03-31T05:28:10.958Z,99403.88
2023-03-31T05:31:00.173Z,99388.53
2023-03-31T05:33:46.302Z,99385.97
2023-03-31T05:36:35.208Z,99378.78
2023-03-31T05:39:21.707Z,99369.13
2023-03-31T05:42:08.539Z,99383.44
2023-03-31T05:44:55.048Z,99370.06
2023-03-31T05:47:41.579Z,99368.69
2023-03-31T05:50:28.030Z,99365.69
2023-03-31T05:53:15.905Z,99357.84
2023-03-31T05:56:04.329Z,99351.69
2023-03-31T05:58:51.252Z,99353.13
2023-03-31T06:01:37.549Z,99347.63
2023-03-31T06:04:24.425Z,99341.00
2023-03-31T06:07:11.279Z,99340.84
2023-03-31T06:09:59.209Z,99331.19
2023-03-31T06:12:45.410Z,99329.00
2023-03-31T06:15:32.114Z,99315.13
2023-03-31T06:18:18.673Z,99317.09
2023-03-31T06:21:06.007Z,99305.50
2023-03-31T06:23:55.120Z,99309.75
2023-03-31T06:26:43.209Z,99313.19
2023-03-31T06:29:29.497Z,99302.63
2023-03-31T06:32:16.052Z,99289.75
2023-03-31T06:35:02.364Z,99293.41
2023-03-31T06:37:48.919Z,99303.31
2023-03-31T06:40:35.357Z,99300.75
2023-03-31T06:43:23.103Z,99298.81
2023-03-31T06:46:10.129Z,99302.38
2023-03-31T06:48:56.831Z,99300.75
2023-03-31T06:51:43.020Z,99295.34
2023-03-31T06:54:29.232Z,99300.47
2023-03-31T06:57:15.702Z,99292.69
2023-03-31T07:00:04.280Z,99281.38
2023-03-31T07:02:51.007Z,99269.44
2023-03-31T07:05:37.762Z,99290.22
2023-03-31T07:08:25.335Z,99286.75
2023-03-31T07:11:12.539Z,99288.78
2023-03-31T07:13:58.987Z,99270.31
2023-03-31T07:16:46.832Z,99273.19
2023-03-31T07:19:33.208Z,99275.94
2023-03-31T07:22:19.458Z,99278.72
2023-03-31T07:25:06.596Z,99275.25
2023-03-31T07:27:53.233Z,99280.72
2023-03-31T07:30:40.942Z,99273.59
2023-03-31T07:33:28.926Z,99286.97
2023-03-31T07:36:15.976Z,99262.88
2023-03-31T07:39:02.483Z,99240.44
2023-03-31T07:41:48.993Z,99247.31
2023-03-31T07:44:35.924Z,99244.34
2023-03-31T07:47:22.222Z,99159.31
2023-03-31T07:50:11.290Z,99138.25
2023-03-31T07:52:58.110Z,99154.25
2023-03-31T07:55:44.589Z,99158.94
2023-03-31T07:58:30.948Z,99171.38
2023-03-31T08:01:19.100Z,99167.44
2023-03-31T08:04:05.685Z,99164.25
2023-03-31T08:06:53.699Z,99166.44
2023-03-31T08:09:40.308Z,99165.09
2023-03-31T08:12:26.436Z,99165.03
2023-03-31T08:15:12.683Z,99162.66
2023-03-31T08:17:59.185Z,99154.06
2023-03-31T08:20:48.354Z,99152.16
2023-03-31T08:23:37.090Z,99157.22
2023-03-31T08:26:24.397Z,99147.91
2023-03-31T08:29:10.687Z,99153.19
2023-03-31T08:31:57.176Z,99142.47
2023-03-31T08:34:43.773Z,99141.03
2023-03-31T08:37:30.223Z,99144.53
2023-03-31T08:40:23.727Z,99143.88
2023-03-31T08:43:18.381Z,99142.22
2023-03-31T08:46:06.334Z,99133.16
2023-03-31T08:48:55.943Z,99127.28
2023-03-31T08:51:45.251Z,99122.47
2023-03-31T08:54:35.322Z,99108.88
2023-03-31T08:57:27.094Z,99109.34
2023-03-31T09:00:17.550Z,99105.84
2023-03-31T09:03:08.146Z,99110.38
2023-03-31T09:06:02.162Z,99104.69
2023-03-31T09:08:48.732Z,99110.56
2023-03-31T09:11:39.469Z,99107.22
2023-03-31T09:14:33.779Z,99108.72
2023-03-31T09:17:27.152Z,99102.59
2023-03-31T09:20:23.594Z,99106.09
2023-03-31T09:23:24.260Z,99113.97
2023-03-31T09:26:26.598Z,99097.53
2023-03-31T09:29:19.206Z,99105.41
2023-03-31T09:32:16.399Z,99114.06
2023-03-31T09:35:13.679Z,99115.75
2023-03-31T09:38:00.490Z,99106.78
2023-03-31T09:40:47.862Z,99115.34
2023-03-31T09:43:36.120Z,99112.66
2023-03-31T09:46:30.859Z,99112.72
2023-03-31T09:49:21.882Z,99113.91
2023-03-31T09:52:16.059Z,99105.72
2023-03-31T09:55:05.487Z,99110.44
2023-03-31T09:57:53.069Z,99103.63
2023-03-31T10:00:42.921Z,99102.31
2023-03-31T10:03:30.886Z,99107.06
2023-03-31T10:06:19.318Z,99100.97
2023-03-31T10:09:06.363Z,99103.88
2023-03-31T10:11:56.486Z,99105.16
2023-03-31T10:14:48.107Z,99090.75
2023-03-31T10:17:53.784Z,99094.59
2023-03-31T10:20:46.506Z,99089.47
2023-03-31T10:23:36.187Z,99093.13
2023-03-31T10:26:24.933Z,99080.78
2023-03-31T10:29:14.861Z,99094.84
2023-03-31T10:32:06.215Z,99079.97
2023-03-31T10:34:53.565Z,99095.22
2023-03-31T10:37:40.998Z,99085.69
2023-03-31T10:40:31.998Z,99083.31
2023-03-31T10:43:21.104Z,99078.03
2023-03-31T10:46:07.656Z,99061.56
2023-03-31T10:48:54.110Z,99082.59
2023-03-31T10:51:50.492Z,99071.53
2023-03-31T10:54:37.728Z,99066.63
2023-03-31T10:57:36.967Z,99068.84
2023-03-31T11:00:31.744Z,99053.81
2023-03-31T11:03:52.707Z,99061.50
2023-03-31T11:06:51.940Z,99047.53
2023-03-31T11:09:52.786Z,99053.47
2023-03-31T11:12:51.806Z,99044.41
2023-03-31T11:15:44.307Z,99046.13
2023-03-31T11:18:43.548Z,99044.75
2023-03-31T11:21:41.727Z,99037.16
2023-03-31T11:24:39.956Z,99036.69
2023-03-31T11:27:37.888Z,99041.56
2023-03-31T11:30:33.088Z,99049.03
2023-03-31T11:33:36.733Z,99048.88
2023-03-31T11:36:53.490Z,99033.34
2023-03-31T11:39:52.032Z,99037.50
2023-03-31T11:42:44.829Z,99032.19
2023-03-31T11:45:38.473Z,99037.00
2023-03-31T11:48:36.187Z,99029.78
2023-03-31T11:51:27.492Z,99031.25
2023-03-31T11:54:19.379Z,99018.66
2023-03-31T11:57:17.498Z,99021.91
2023-03-31T12:00:11.161Z,99009.56
2023-03-31T12:03:11.077Z,99000.19
2023-03-31T12:06:02.997Z,99007.00
2023-03-31T12:08:56.107Z,99002.25
2023-03-31T12:11:48.547Z,98998.41
2023-03-31T12:14:40.390Z,98995.25
2023-03-31T12:17:29.315Z,98996.03
2023-03-31T12:20:28.987Z,98986.44
2023-03-31T12:23:19.258Z,98987.00
2023-03-31T12:26:14.743Z,98982.88
2023-03-31T12:29:06.658Z,98984.16
2023-03-31T12:31:55.984Z,98973.47
2023-03-31T12:34:47.854Z,98965.88
2023-03-31T12:38:05.248Z,98979.00
2023-03-31T12:41:02.379Z,98965.78
2023-03-31T12:44:25.533Z,98961.28
2023-03-31T12:47:30.129Z,98950.22
2023-03-31T12:50:32.567Z,98950.53
2023-03-31T12:53:30.251Z,98951.88
2023-03-31T12:56:16.938Z,98941.38
2023-03-31T12:59:19.732Z,98940.28
2023-03-31T13:02:26.901Z,98935.53
2023-03-31T13:05:45.491Z,98924.19
2023-03-31T13:08:54.831Z,98931.91
2023-03-31T13:11:44.635Z,98925.47
2023-03-31T13:14:37.193Z,98924.09
2023-03-31T13:17:30.036Z,98921.56
2023-03-31T13:20:26.314Z,98918.03
2023-03-31T13:23:22.515Z,98925.28
2023-03-31T13:26:41.582Z,98915.16
2023-03-31T13:29:42.277Z,98916.31
2023-03-31T13:32:29.504Z,98912.34
2023-03-31T13:35:29.776Z,98911.16
2023-03-31T13:38:27.383Z,98908.44
2023-03-31T13:41:30.200Z,98910.84
2023-03-31T13:44:38.432Z,98906.47
2023-03-31T13:47:54.493Z,98903.88
2023-03-31T13:50:54.425Z,98912.53
2023-03-31T13:54:08.864Z,98915.50
2023-03-31T13:57:36.816Z,98906.03
2023-03-31T14:00:34.877Z,98905.66
2023-03-31T14:03:31.544Z,98899.63
2023-03-31T14:06:27.016Z,98904.00
2023-03-31T14:09:21.115Z,98902.84
2023-03-31T14:12:22.901Z,98891.28
2023-03-31T14:15:20.413Z,98899.00
2023-03-31T14:18:08.471Z,98886.53
2023-03-31T14:21:08.454Z,98880.97
2023-03-31T14:24:03.808Z,98896.59
2023-03-31T14:26:59.528Z,98878.53
2023-03-31T14:29:57.841Z,98904.47
2023-03-31T14:32:51.211Z,98895.88
2023-03-31T14:35:44.046Z,98897.34
2023-03-31T14:38:32.194Z,98885.16
2023-03-31T14:41:29.400Z,98884.56
2023-03-31T14:44:30.506Z,98890.06
2023-03-31T14:47:26.524Z,98879.03
2023-03-31T14:50:16.314Z,98881.38
2023-03-31T14:53:04.671Z,98880.16
2023-03-31T14:55:58.758Z,98871.00
2023-03-31T14:58:50.509Z,98878.19
2023-03-31T15:01:47.491Z,98884.03
2023-03-31T15:04:44.976Z,98872.97
2023-03-31T15:07:31.445Z,98878.41
2023-03-31T15:10:22.111Z,98874.72
2023-03-31T15:13:09.526Z,98866.38
2023-03-31T15:15:56.158Z,98868.56
2023-03-31T15:18:44.464Z,98860.28
2023-03-31T15:21:35.298Z,98862.34
2023-03-31T15:24:22.145Z,98868.38
2023-03-31T15:27:20.394Z,98857.56
2023-03-31T15:30:09.377Z,98859.41
2023-03-31T15:33:04.219Z,98848.88
2023-03-31T15:35:58.629Z,98855.03
2023-03-31T15:38:46.393Z,98853.22
2023-03-31T15:41:33.006Z,98845.66
2023-03-31T15:44:31.058Z,98852.59
2023-03-31T15:47:19.549Z,98849.31
2023-03-31T15:50:13.944Z,98852.94
2023-03-31T15:53:01.364Z,98860.78
2023-03-31T15:55:51.762Z,98853.53
2023-03-31T15:58:54.704Z,98851.97
2023-03-31T16:01:46.047Z,98857.13
2023-03-31T16:04:33.624Z,98848.94
2023-03-31T16:07:23.343Z,98871.78
2023-03-31T16:10:16.577Z,98851.13
2023-03-31T16:13:08.514Z,98849.50
2023-03-31T16:15:56.729Z,98849.34
2023-03-31T16:18:47.192Z,98843.84
2023-03-31T16:21:37.365Z,98837.03
2023-03-31T16:24:31.191Z,98834.63
2023-03-31T16:27:19.540Z,98839.78
2023-03-31T16:30:13.637Z,98838.00
2023-03-31T16:33:02.650Z,98823.78
2023-03-31T16:35:51.094Z,98819.72
2023-03-31T16:38:37.600Z,98819.91
2023-03-31T16:41:24.213Z,98819.03
2023-03-31T16:44:10.439Z,98823.75
2023-03-31T16:46:58.062Z,98820.13
2023-03-31T16:49:44.358Z,98814.88
2023-03-31T16:52:30.772Z,98822.03
2023-03-31T16:55:17.266Z,98820.91
2023-03-31T16:58:04.102Z,98826.25
2023-03-31T17:00:50.877Z,98813.09
2023-03-31T17:03:41.584Z,98809.94
2023-03-31T17:06:28.323Z,98802.88
2023-03-31T17:09:14.773Z,98807.00
2023-03-31T17:12:01.721Z,98812.69
2023-03-31T17:14:48.339Z,98816.34
2023-03-31T17:17:34.575Z,98812.78
2023-03-31T17:20:22.106Z,98821.16
2023-03-31T17:23:08.785Z,98809.81
2023-03-31T17:25:55.392Z,98798.38
2023-03-31T17:28:42.543Z,98805.41
2023-03-31T17:31:31.744Z,98802.38
2023-03-31T17:34:18.317Z,98809.22
2023-03-31T17:37:06.008Z,98814.66
2023-03-31T17:39:52.567Z,98813.50
2023-03-31T17:42:39.043Z,98803.25
2023-03-31T17:45:27.975Z,98802.47
2023-03-31T17:48:16.611Z,98811.53
2023-03-31T17:51:08.427Z,98800.41
2023-03-31T17:53:57.648Z,98795.22
2023-03-31T17:56:47.840Z,98805.00
2023-03-31T17:59:34.216Z,98798.25
2023-03-31T18:02:20.801Z,98804.69
2023-03-31T18:05:08.347Z,98805.91
2023-03-31T18:07:55.554Z,98803.31
2023-03-31T18:10:43.508Z,98803.25
2023-03-31T18:13:30.608Z,98792.25
2023-03-31T18:16:17.146Z,98806.94
2023-03-31T18:19:03.929Z,98790.66
2023-03-31T18:21:50.116Z,98799.03
2023-03-31T18:24:38.392Z,98808.84
2023-03-31T18:27:26.534Z,98798.25
2023-03-31T18:30:14.311Z,98798.78
2023-03-31T18:33:00.879Z,98799.59
2023-03-31T18:35:48.196Z,98805.97
2023-03-31T18:38:36.840Z,98807.91
2023-03-31T18:41:25.002Z,98801.91
2023-03-31T18:44:14.870Z,98814.25
2023-03-31T18:47:01.713Z,98805.44
2023-03-31T18:49:53.040Z,98814.09
2023-03-31T18:52:39.299Z,98808.59
2023-03-31T18:55:25.766Z,98806.00
2023-03-31T18:58:12.072Z,98809.56
2023-03-31T19:01:01.727Z,98807.75
2023-03-31T19:03:48.540Z,98809.94
2023-03-31T19:06:35.498Z,98800.91
2023-03-31T19:09:22.758Z,98802.22
2023-03-31T19:12:09.122Z,98801.66
2023-03-31T19:14:55.986Z,98805.44
2023-03-31T19:17:43.797Z,98803.41
2023-03-31T19:20:30.048Z,98785.59
2023-03-31T19:23:16.444Z,98790.25
2023-03-31T19:26:03.853Z,98789.97
2023-03-31T19:28:50.657Z,98797.72
2023-03-31T19:31:40.240Z,98791.75
2023-03-31T19:34:28.421Z,98792.78
2023-03-31T19:37:15.320Z,98797.56
2023-03-31T19:40:03.056Z,98803.22
2023-03-31T19:42:49.561Z,98799.34
2023-03-31T19:45:37.072Z,98791.47
2023-03-31T19:48:25.516Z,98785.25
2023-03-31T19:51:13.347Z,98782.81
2023-03-31T19:53:59.686Z,98783.59
2023-03-31T19:56:47.351Z,98781.31
2023-03-31T19:59:33.845Z,98783.06
2023-03-31T20:02:20.398Z,98787.44
2023-03-31T20:05:07.627Z,98779.63
2023-03-31T20:07:55.721Z,98777.50
2023-03-31T20:10:42.278Z,98768.47
2023-03-31T20:13:29.037Z,98759.22
2023-03-31T20:16:17.764Z,98755.34
2023-03-31T20:19:06.574Z,98763.34
2023-03-31T20:21:55.808Z,98761.56
2023-03-31T20:24:43.849Z,98764.28
2023-03-31T20:27:30.352Z,98762.31
2023-03-31T20:30:17.194Z,98761.56
2023-03-31T20:33:04.077Z,98765.03
2023-03-31T20:35:51.897Z,98756.19
2023-03-31T20:38:39.507Z,98757.53
2023-03-31T20:41:28.814Z,98757.94
2023-03-31T20:44:15.946Z,98766.28
2023-03-31T20:47:02.456Z,98773.47
2023-03-31T20:49:48.949Z,98782.00
2023-03-31T20:52:34.921Z,98776.81
2023-03-31T20:55:21.738Z,98788.38
2023-03-31T20:58:09.214Z,98782.44
2023-03-31T21:00:58.930Z,98778.88
2023-03-31T21:03:45.874Z,98786.31
2023-03-31T21:06:39.575Z,98795.38
2023-03-31T21:09:26.141Z,98791.69
2023-03-31T21:12:12.641Z,98788.25
2023-03-31T21:15:00.440Z,98782.00
2023-03-31T21:17:46.859Z,98793.06
2023-03-31T21:20:33.926Z,98787.00
2023-03-31T21:23:21.132Z,98785.22
2023-03-31T21:26:08.996Z,98780.22
2023-03-31T21:28:55.502Z,98787.69
2023-03-31T21:31:44.957Z,98776.59
2023-03-31T21:34:31.344Z,98777.16
2023-03-31T21:37:17.650Z,98772.91
2023-03-31T21:40:05.946Z,98769.13
2023-03-31T21:42:54.757Z,98773.28
2023-03-31T21:45:41.756Z,98777.50
2023-03-31T21:48:29.611Z,98777.41
2023-03-31T21:51:17.030Z,98778.97
2023-03-31T21:54:03.503Z,98781.69
2023-03-31T21:56:49.922Z,98781.19
2023-03-31T21:59:36.104Z,98791.38
2023-03-31T22:02:23.227Z,98795.25
2023-03-31T22:05:11.711Z,98791.38
2023-03-31T22:07:57.929Z,98792.31
2023-03-31T22:10:44.218Z,98795.50
2023-03-31T22:13:30.994Z,98789.91
2023-03-31T22:16:19.880Z,98791.88
2023-03-31T22:19:06.866Z,98809.41
2023-03-31T22:22:00.865Z,98800.09
2023-03-31T22:24:47.067Z,98803.78
2023-03-31T22:27:33.554Z,98797.41
2023-03-31T22:30:21.429Z,98798.25
2023-03-31T22:33:07.470Z,98790.97
2023-03-31T22:35:54.025Z,98798.50
2023-03-31T22:38:41.907Z,98797.72
2023-03-31T22:41:28.485Z,98804.78
2023-03-31T22:44:14.776Z,98796.72
2023-03-31T22:47:01.534Z,98806.00
2023-03-31T22:49:47.809Z,98813.59
2023-03-31T22:52:34.193Z,98817.94
2023-03-31T22:55:21.763Z,98813.38
2023-03-31T22:58:08.103Z,98829.50
2023-03-31T23:00:58.255Z,98826.25
2023-03-31T23:03:46.244Z,98835.41
2023-03-31T23:06:35.470Z,98842.19
2023-03-31T23:09:24.476Z,98839.75
2023-03-31T23:12:12.154Z,98833.38
2023-03-31T23:14:58.341Z,98844.38
2023-03-31T23:17:44.925Z,98842.91
2023-03-31T23:20:31.702Z,98838.19
2023-03-31T23:23:18.094Z,98840.22
2023-03-31T23:26:05.062Z,98830.28
2023-03-31T23:28:53.408Z,98837.09
2023-03-31T23:31:39.975Z,98844.59
2023-03-31T23:34:26.374Z,98842.31
2023-03-31T23:37:16.440Z,98843.84
2023-03-31T23:40:02.839Z,98838.59
2023-03-31T23:42:49.260Z,98841.03
2023-03-31T23:45:36.763Z,98833.22
2023-03-31T23:48:23.357Z,98830.34
2023-03-31T23:51:10.413Z,98839.78
2023-03-31T23:53:56.957Z,98838.84
2023-03-31T23:56:43.236Z,98837.09
2023-03-31T23:59:29.559Z,98850.59
